createdAt,value
2022-10-04T00:02:27.993Z,12.40
2022-10-04T00:05:01.325Z,12.30
2022-10-04T00:07:31.357Z,12.10
2022-10-04T00:10:02.509Z,12.00
2022-10-04T00:12:34.962Z,12.00
2022-10-04T00:15:05.947Z,12.00
2022-10-04T00:17:36.564Z,11.90
2022-10-04T00:20:11.809Z,11.90
2022-10-04T00:23:18.996Z,11.80
2022-10-04T00:25:47.896Z,11.70
2022-10-04T00:28:32.128Z,11.70
2022-10-04T00:31:16.404Z,11.60
2022-10-04T00:33:47.701Z,11.60
2022-10-04T00:36:51.789Z,11.50
2022-10-04T00:39:39.198Z,11.50
2022-10-04T00:42:33.530Z,11.40
2022-10-04T00:45:04.466Z,11.50
2022-10-04T00:47:34.502Z,11.50
2022-10-04T00:50:12.470Z,11.50
2022-10-04T00:52:45.500Z,11.50
2022-10-04T00:55:22.331Z,11.50
2022-10-04T00:57:52.032Z,11.50
2022-10-04T01:00:21.431Z,11.40
2022-10-04T01:02:53.822Z,11.40
2022-10-04T01:05:26.542Z,11.40
2022-10-04T01:07:58.438Z,11.60
2022-10-04T01:10:29.689Z,11.70
2022-10-04T01:13:02.232Z,11.60
2022-10-04T01:15:35.776Z,11.50
2022-10-04T01:18:12.150Z,11.50
2022-10-04T01:20:51.094Z,11.40
2022-10-04T01:23:51.129Z,11.30
2022-10-04T01:26:40.735Z,11.10
2022-10-04T01:29:12.845Z,11.00
2022-10-04T01:31:43.335Z,10.90
2022-10-04T01:34:15.002Z,10.80
2022-10-04T01:36:44.302Z,10.70
2022-10-04T01:39:14.807Z,10.70
2022-10-04T01:41:50.206Z,10.70
2022-10-04T01:44:25.565Z,10.60
2022-10-04T01:46:56.263Z,10.60
2022-10-04T01:49:28.099Z,10.50
2022-10-04T01:52:00.742Z,10.50
2022-10-04T01:54:35.639Z,10.60
2022-10-04T01:57:08.442Z,10.60
2022-10-04T01:59:41.791Z,10.50
2022-10-04T02:02:19.451Z,10.50
2022-10-04T02:04:53.806Z,10.40
2022-10-04T02:07:22.827Z,10.30
2022-10-04T02:09:56.923Z,10.30
2022-10-04T02:12:26.068Z,10.30
2022-10-04T02:14:55.658Z,10.30
2022-10-04T02:17:25.687Z,10.30
2022-10-04T02:19:54.294Z,10.20
2022-10-04T02:22:25.131Z,10.20
2022-10-04T02:24:57.077Z,10.20
2022-10-04T02:27:29.141Z,10.10
2022-10-04T02:30:02.157Z,10.10
2022-10-04T02:32:50.138Z,10.10
2022-10-04T02:35:19.838Z,10.00
2022-10-04T02:37:50.724Z,10.10
2022-10-04T02:40:23.485Z,10.10
2022-10-04T02:42:59.807Z,10.10
2022-10-04T02:45:37.866Z,10.10
2022-10-04T02:48:16.956Z,10.00
2022-10-04T02:50:48.492Z,10.00
2022-10-04T02:53:22.927Z,9.90
2022-10-04T02:55:53.070Z,10.00
2022-10-04T02:58:23.657Z,10.10
2022-10-04T03:00:53.756Z,10.10
2022-10-04T03:03:25.083Z,10.10
2022-10-04T03:06:02.207Z,10.00
2022-10-04T03:08:33.217Z,10.00
2022-10-04T03:11:04.786Z,9.90
2022-10-04T03:13:33.366Z,9.90
2022-10-04T03:16:02.335Z,9.80
2022-10-04T03:18:31.324Z,9.80
2022-10-04T03:21:02.355Z,9.80
2022-10-04T03:23:33.064Z,9.70
2022-10-04T03:26:05.302Z,9.80
2022-10-04T03:28:33.919Z,9.80
2022-10-04T03:31:02.595Z,9.80
2022-10-04T03:33:31.206Z,9.80
2022-10-04T03:36:01.946Z,9.90
2022-10-04T03:38:30.547Z,9.80
2022-10-04T03:41:01.057Z,9.80
2022-10-04T03:43:32.626Z,9.70
2022-10-04T03:46:01.969Z,9.60
2022-10-04T03:48:33.599Z,9.60
2022-10-04T03:51:03.730Z,9.60
2022-10-04T03:53:37.399Z,9.50
2022-10-04T03:56:12.377Z,9.60
2022-10-04T03:58:42.397Z,9.70
2022-10-04T04:01:18.925Z,10.00
2022-10-04T04:03:55.239Z,10.20
2022-10-04T04:06:24.740Z,10.40
2022-10-04T04:08:54.591Z,10.40
2022-10-04T04:11:25.541Z,10.60
2022-10-04T04:14:03.165Z,10.70
2022-10-04T04:16:31.900Z,10.70
2022-10-04T04:19:03.084Z,10.70
2022-10-04T04:21:32.339Z,10.90
2022-10-04T04:24:03.674Z,10.90
2022-10-04T04:26:37.370Z,10.80
2022-10-04T04:29:11.079Z,10.80
2022-10-04T04:31:43.959Z,10.80
2022-10-04T04:34:19.911Z,10.80
2022-10-04T04:36:48.688Z,10.80
2022-10-04T04:39:36.974Z,10.90
2022-10-04T04:42:11.338Z,10.90
2022-10-04T04:44:48.069Z,11.00
2022-10-04T04:47:27.597Z,11.20
2022-10-04T04:49:57.823Z,11.20
2022-10-04T04:52:28.880Z,11.20
2022-10-04T04:54:57.869Z,11.20
2022-10-04T04:57:26.371Z,11.20
2022-10-04T04:59:59.550Z,11.20
2022-10-04T05:02:36.187Z,11.30
2022-10-04T05:05:22.532Z,11.30
2022-10-04T05:07:51.364Z,11.20
2022-10-04T05:10:30.280Z,10.90
2022-10-04T05:13:00.441Z,10.60
2022-10-04T05:15:34.288Z,10.20
2022-10-04T05:18:03.657Z,9.90
2022-10-04T05:20:34.384Z,9.40
2022-10-04T05:23:02.846Z,9.20
2022-10-04T05:25:33.530Z,8.80
2022-10-04T05:28:02.328Z,8.50
2022-10-04T05:30:43.051Z,8.40
2022-10-04T05:33:13.855Z,8.40
2022-10-04T05:35:58.991Z,8.40
2022-10-04T05:38:34.051Z,8.30
2022-10-04T05:41:07.206Z,8.20
2022-10-04T05:43:38.126Z,8.20
2022-10-04T05:46:23.409Z,8.40
2022-10-04T05:48:55.746Z,8.40
2022-10-04T05:51:25.920Z,8.30
2022-10-04T05:53:55.824Z,8.30
2022-10-04T05:57:05.093Z,8.30
2022-10-04T05:59:46.872Z,8.20
2022-10-04T06:02:25.284Z,8.20
2022-10-04T06:05:05.930Z,8.20
2022-10-04T06:07:36.786Z,8.10
2022-10-04T06:10:26.113Z,8.20
2022-10-04T06:12:58.359Z,8.20
2022-10-04T06:15:42.066Z,8.20
2022-10-04T06:18:22.217Z,8.20
2022-10-04T06:21:04.622Z,8.30
2022-10-04T06:23:34.543Z,8.30
2022-10-04T06:26:06.252Z,8.40
2022-10-04T06:28:38.601Z,8.40
2022-10-04T06:31:24.292Z,8.40
2022-10-04T06:34:15.048Z,8.20
2022-10-04T06:37:10.706Z,8.20
2022-10-04T06:40:18.023Z,8.30
2022-10-04T06:43:09.001Z,8.40
2022-10-04T06:45:50.432Z,8.50
2022-10-04T06:48:46.017Z,8.50
2022-10-04T06:51:23.838Z,8.60
2022-10-04T06:54:01.123Z,8.80
2022-10-04T06:56:47.476Z,8.90
2022-10-04T06:59:28.568Z,9.10
2022-10-04T07:02:00.282Z,9.20
2022-10-04T07:05:03.169Z,9.30
2022-10-04T07:07:37.950Z,9.50
2022-10-04T07:10:27.612Z,9.70
2022-10-04T07:13:07.794Z,10.10
2022-10-04T07:15:46.006Z,10.30
2022-10-04T07:18:19.746Z,10.40
2022-10-04T07:20:49.071Z,10.50
2022-10-04T07:23:29.527Z,10.70
2022-10-04T07:26:01.934Z,10.80
2022-10-04T07:28:50.956Z,11.20
2022-10-04T07:31:26.317Z,11.50
2022-10-04T07:33:58.319Z,11.80
2022-10-04T07:36:29.778Z,12.00
2022-10-04T07:39:05.530Z,12.30
2022-10-04T07:41:37.451Z,12.40
2022-10-04T07:44:16.116Z,12.60
2022-10-04T07:46:49.347Z,12.60
2022-10-04T07:49:19.376Z,12.80
2022-10-04T07:52:03.643Z,12.90
2022-10-04T07:54:39.630Z,13.00
2022-10-04T07:57:15.366Z,13.10
2022-10-04T07:59:49.707Z,13.00
2022-10-04T08:02:26.604Z,13.10
2022-10-04T08:05:07.020Z,13.10
2022-10-04T08:07:47.041Z,13.20
2022-10-04T08:10:22.574Z,13.30
2022-10-04T08:12:54.794Z,13.30
2022-10-04T08:15:35.059Z,13.40
2022-10-04T08:18:12.652Z,13.50
2022-10-04T08:20:48.146Z,13.60
2022-10-04T08:23:38.123Z,13.80
2022-10-04T08:26:18.571Z,14.00
2022-10-04T08:29:12.054Z,14.00
2022-10-04T08:31:51.422Z,14.10
2022-10-04T08:34:32.381Z,14.20
2022-10-04T08:37:10.149Z,14.30
2022-10-04T08:39:53.917Z,14.40
2022-10-04T08:42:47.728Z,14.40
2022-10-04T08:46:05.024Z,14.50
2022-10-04T08:49:02.511Z,14.60
2022-10-04T08:52:01.337Z,14.80
2022-10-04T08:55:14.571Z,14.90
2022-10-04T08:58:21.278Z,14.90
2022-10-04T09:01:02.000Z,15.00
2022-10-04T09:04:12.279Z,15.00
2022-10-04T09:06:54.430Z,15.10
2022-10-04T09:09:58.179Z,15.20
2022-10-04T09:13:05.522Z,15.20
2022-10-04T09:15:53.783Z,15.10
2022-10-04T09:18:25.462Z,15.20
2022-10-04T09:20:59.114Z,15.30
2022-10-04T09:23:59.126Z,15.40
2022-10-04T09:26:34.721Z,15.30
2022-10-04T09:29:22.441Z,15.30
2022-10-04T09:32:23.039Z,15.30
2022-10-04T09:35:15.081Z,15.40
2022-10-04T09:37:51.495Z,15.50
2022-10-04T09:40:51.787Z,15.60
2022-10-04T09:43:54.517Z,15.60
2022-10-04T09:46:41.067Z,15.60
2022-10-04T09:49:21.606Z,15.60
2022-10-04T09:52:06.091Z,15.70
2022-10-04T09:55:05.213Z,15.90
2022-10-04T09:57:49.705Z,16.20
2022-10-04T10:00:25.176Z,16.50
2022-10-04T10:03:29.052Z,16.50
2022-10-04T10:06:26.024Z,16.60
2022-10-04T10:09:04.043Z,16.80
2022-10-04T10:11:56.477Z,16.90
2022-10-04T10:15:01.052Z,16.80
2022-10-04T10:17:40.151Z,16.70
2022-10-04T10:20:45.230Z,16.60
2022-10-04T10:23:30.430Z,16.50
2022-10-04T10:26:32.401Z,16.40
2022-10-04T10:29:37.139Z,16.40
2022-10-04T10:32:27.210Z,16.30
2022-10-04T10:35:21.543Z,16.40
2022-10-04T10:38:03.649Z,16.30
2022-10-04T10:41:01.504Z,16.40
2022-10-04T10:43:41.637Z,16.50
2022-10-04T10:46:25.698Z,16.60
2022-10-04T10:49:16.946Z,16.70
2022-10-04T10:52:11.295Z,16.70
2022-10-04T10:54:51.311Z,16.80
2022-10-04T10:57:36.494Z,16.80
2022-10-04T11:00:20.931Z,16.90
2022-10-04T11:03:14.621Z,16.90
2022-10-04T11:06:19.592Z,16.90
2022-10-04T11:09:28.714Z,17.00
2022-10-04T11:12:33.453Z,17.20
2022-10-04T11:15:36.313Z,17.20
2022-10-04T11:18:30.163Z,17.30
2022-10-04T11:21:26.749Z,17.40
2022-10-04T11:24:31.023Z,17.40
2022-10-04T11:27:11.229Z,17.40
2022-10-04T11:29:55.293Z,17.40
2022-10-04T11:32:48.422Z,17.40
2022-10-04T11:35:49.596Z,17.40
2022-10-04T11:38:30.518Z,17.50
2022-10-04T11:41:16.432Z,17.40
2022-10-04T11:44:03.924Z,17.50
2022-10-04T11:46:39.934Z,17.50
2022-10-04T11:49:39.632Z,17.50
2022-10-04T11:52:37.038Z,17.40
2022-10-04T11:55:27.490Z,17.50
2022-10-04T11:57:58.614Z,17.60
2022-10-04T12:00:29.119Z,17.60
2022-10-04T12:03:33.042Z,17.80
2022-10-04T12:06:15.440Z,17.80
2022-10-04T12:08:53.235Z,17.80
2022-10-04T12:12:13.471Z,17.80
2022-10-04T12:14:52.086Z,17.80
2022-10-04T12:17:57.578Z,17.70
2022-10-04T12:20:40.183Z,17.80
2022-10-04T12:23:22.950Z,17.90
2022-10-04T12:26:07.317Z,18.00
2022-10-04T12:29:10.562Z,18.00
2022-10-04T12:31:43.623Z,18.10
2022-10-04T12:34:21.443Z,18.20
2022-10-04T12:37:03.240Z,18.20
2022-10-04T12:39:40.237Z,18.20
2022-10-04T12:42:18.180Z,18.30
2022-10-04T12:44:58.247Z,18.30
2022-10-04T12:47:52.603Z,18.30
2022-10-04T12:50:32.700Z,18.40
2022-10-04T12:53:17.869Z,18.40
2022-10-04T12:55:57.286Z,18.40
2022-10-04T12:58:30.132Z,18.40
2022-10-04T13:01:02.355Z,18.50
2022-10-04T13:03:40.264Z,18.60
2022-10-04T13:06:15.179Z,18.50
2022-10-04T13:08:56.465Z,18.50
2022-10-04T13:11:45.906Z,18.50
2022-10-04T13:14:50.710Z,18.50
2022-10-04T13:17:35.408Z,18.60
2022-10-04T13:20:21.292Z,18.60
2022-10-04T13:22:56.991Z,18.60
2022-10-04T13:25:37.710Z,18.60
2022-10-04T13:28:11.994Z,18.70
2022-10-04T13:30:47.443Z,18.70
2022-10-04T13:33:26.879Z,18.80
2022-10-04T13:36:00.262Z,18.70
2022-10-04T13:38:50.284Z,18.70
2022-10-04T13:41:30.115Z,18.60
2022-10-04T13:44:15.324Z,18.60
2022-10-04T13:46:52.212Z,18.60
2022-10-04T13:49:29.098Z,18.50
2022-10-04T13:52:33.346Z,18.50
2022-10-04T13:55:34.210Z,18.50
2022-10-04T13:58:15.339Z,18.50
2022-10-04T14:00:57.342Z,18.50
2022-10-04T14:03:41.308Z,18.50
2022-10-04T14:06:43.135Z,18.40
2022-10-04T14:09:26.388Z,18.40
2022-10-04T14:12:26.827Z,18.50
2022-10-04T14:15:18.103Z,18.40
2022-10-04T14:18:04.194Z,18.40
2022-10-04T14:21:15.286Z,18.40
2022-10-04T14:24:11.371Z,18.50
2022-10-04T14:27:03.886Z,18.50
2022-10-04T14:29:47.850Z,18.40
2022-10-04T14:32:53.546Z,18.30
2022-10-04T14:35:25.079Z,18.30
2022-10-04T14:38:25.912Z,18.30
2022-10-04T14:41:22.318Z,18.30
2022-10-04T14:44:17.839Z,18.20
2022-10-04T14:46:56.035Z,18.20
2022-10-04T14:49:41.634Z,18.20
2022-10-04T14:52:24.647Z,18.10
2022-10-04T14:54:55.458Z,18.10
2022-10-04T14:57:46.488Z,18.10
2022-10-04T15:00:23.755Z,18.10
2022-10-04T15:03:28.930Z,18.00
2022-10-04T15:06:29.548Z,18.00
2022-10-04T15:09:21.399Z,18.00
2022-10-04T15:12:25.493Z,18.00
2022-10-04T15:15:02.130Z,17.90
2022-10-04T15:17:34.644Z,17.80
2022-10-04T15:20:07.482Z,17.80
2022-10-04T15:22:42.978Z,17.80
2022-10-04T15:25:41.108Z,17.80
2022-10-04T15:28:29.736Z,17.70
2022-10-04T15:31:03.230Z,17.60
2022-10-04T15:33:37.592Z,17.60
2022-10-04T15:36:39.576Z,17.60
2022-10-04T15:39:34.864Z,17.80
2022-10-04T15:42:11.516Z,18.00
2022-10-04T15:45:02.784Z,18.30
2022-10-04T15:47:36.382Z,18.40
2022-10-04T15:50:21.328Z,18.30
2022-10-04T15:52:59.349Z,18.30
2022-10-04T15:55:46.409Z,18.10
2022-10-04T15:58:45.809Z,17.90
2022-10-04T16:01:38.946Z,17.70
2022-10-04T16:04:25.376Z,17.40
2022-10-04T16:06:56.640Z,17.20
2022-10-04T16:09:34.059Z,17.00
2022-10-04T16:12:21.967Z,16.80
2022-10-04T16:15:01.723Z,16.60
2022-10-04T16:17:45.196Z,16.50
2022-10-04T16:20:35.089Z,16.30
2022-10-04T16:23:24.027Z,16.10
2022-10-04T16:25:53.308Z,15.90
2022-10-04T16:28:56.226Z,15.70
2022-10-04T16:31:29.530Z,15.60
2022-10-04T16:34:04.760Z,15.50
2022-10-04T16:36:47.680Z,15.40
2022-10-04T16:39:51.872Z,15.20
2022-10-04T16:42:23.671Z,15.10
2022-10-04T16:44:54.934Z,15.00
2022-10-04T16:47:27.323Z,15.00
2022-10-04T16:49:57.634Z,15.10
2022-10-04T16:52:49.722Z,14.80
2022-10-04T16:55:38.009Z,14.70
2022-10-04T16:58:52.594Z,14.40
2022-10-04T17:02:03.663Z,14.30
2022-10-04T17:05:29.568Z,14.00
2022-10-04T17:08:19.181Z,14.00
2022-10-04T17:11:39.178Z,13.90
2022-10-04T17:14:34.112Z,13.70
2022-10-04T17:17:19.255Z,13.80
2022-10-04T17:19:52.730Z,13.70
2022-10-04T17:22:32.779Z,13.70
2022-10-04T17:25:14.309Z,13.70
2022-10-04T17:27:49.214Z,13.70
2022-10-04T17:30:21.779Z,13.70
2022-10-04T17:33:25.476Z,13.70
2022-10-04T17:36:14.276Z,13.80
2022-10-04T17:38:48.990Z,13.70
2022-10-04T17:41:25.568Z,13.70
2022-10-04T17:44:21.014Z,13.60
2022-10-04T17:46:53.929Z,13.60
2022-10-04T17:49:56.780Z,13.60
2022-10-04T17:52:48.187Z,13.50
2022-10-04T17:55:22.322Z,13.50
2022-10-04T17:57:55.564Z,13.40
2022-10-04T18:00:26.706Z,13.40
2022-10-04T18:03:09.790Z,13.30
2022-10-04T18:05:47.772Z,13.30
2022-10-04T18:08:20.389Z,13.20
2022-10-04T18:10:51.548Z,13.20
2022-10-04T18:13:27.204Z,13.10
2022-10-04T18:16:01.345Z,13.10
2022-10-04T18:18:31.857Z,13.00
2022-10-04T18:21:07.329Z,13.00
2022-10-04T18:23:39.468Z,12.80
2022-10-04T18:26:17.475Z,12.70
2022-10-04T18:28:48.789Z,12.70
2022-10-04T18:31:25.460Z,12.60
2022-10-04T18:33:54.222Z,12.50
2022-10-04T18:36:27.413Z,12.50
2022-10-04T18:39:18.103Z,12.40
2022-10-04T18:41:56.796Z,12.40
2022-10-04T18:44:31.108Z,12.40
2022-10-04T18:47:02.317Z,12.30
2022-10-04T18:49:33.349Z,12.30
2022-10-04T18:52:08.944Z,12.20
2022-10-04T18:54:46.361Z,12.10
2022-10-04T18:57:24.625Z,12.00
2022-10-04T19:00:23.319Z,12.00
2022-10-04T19:03:01.922Z,12.00
2022-10-04T19:05:37.046Z,11.90
2022-10-04T19:08:11.308Z,11.90
2022-10-04T19:10:42.122Z,11.80
2022-10-04T19:13:41.547Z,11.90
2022-10-04T19:16:18.694Z,11.80
2022-10-04T19:18:58.356Z,11.80
2022-10-04T19:21:44.523Z,11.70
2022-10-04T19:24:40.738Z,11.60
2022-10-04T19:27:18.679Z,11.60
2022-10-04T19:30:02.583Z,11.50
2022-10-04T19:32:40.267Z,11.40
2022-10-04T19:35:19.185Z,11.40
2022-10-04T19:37:51.611Z,11.30
2022-10-04T19:40:25.582Z,11.30
2022-10-04T19:43:01.499Z,11.30
2022-10-04T19:45:35.078Z,11.30
2022-10-04T19:48:09.372Z,11.30
2022-10-04T19:50:41.994Z,11.30
2022-10-04T19:53:16.463Z,11.30
2022-10-04T19:55:50.344Z,11.30
2022-10-04T19:58:36.724Z,11.30
2022-10-04T20:01:12.020Z,11.30
2022-10-04T20:03:42.038Z,11.20
2022-10-04T20:06:10.824Z,11.20
2022-10-04T20:09:02.246Z,11.20
2022-10-04T20:11:48.497Z,11.20
2022-10-04T20:14:48.188Z,11.10
2022-10-04T20:17:41.110Z,11.10
2022-10-04T20:20:14.515Z,11.10
2022-10-04T20:22:58.197Z,11.10
2022-10-04T20:26:01.193Z,11.10
2022-10-04T20:28:43.827Z,11.10
2022-10-04T20:31:29.010Z,11.10
2022-10-04T20:34:35.575Z,11.00
2022-10-04T20:37:05.807Z,11.00
2022-10-04T20:40:15.805Z,11.00
2022-10-04T20:42:44.255Z,11.00
2022-10-04T20:45:23.779Z,10.90
2022-10-04T20:47:54.248Z,10.90
2022-10-04T20:50:37.176Z,10.90
2022-10-04T20:53:08.270Z,10.80
2022-10-04T20:55:38.992Z,10.80
2022-10-04T20:58:26.616Z,10.90
2022-10-04T21:00:56.472Z,11.30
2022-10-04T21:03:25.471Z,11.80
2022-10-04T21:06:04.204Z,12.30
2022-10-04T21:08:33.101Z,12.70
2022-10-04T21:11:06.602Z,13.00
2022-10-04T21:13:53.115Z,13.20
2022-10-04T21:16:42.122Z,13.50
2022-10-04T21:19:53.144Z,13.50
2022-10-04T21:22:39.634Z,13.50
2022-10-04T21:25:38.307Z,13.20
2022-10-04T21:28:29.756Z,12.80
2022-10-04T21:30:58.366Z,12.70
2022-10-04T21:33:26.826Z,12.60
2022-10-04T21:35:55.432Z,12.50
2022-10-04T21:38:25.262Z,12.30
2022-10-04T21:40:53.701Z,12.10
2022-10-04T21:43:22.140Z,12.00
2022-10-04T21:45:51.136Z,11.90
2022-10-04T21:48:21.830Z,11.80
2022-10-04T21:50:51.622Z,11.80
2022-10-04T21:53:20.186Z,11.80
2022-10-04T21:55:50.168Z,11.70
2022-10-04T21:58:18.657Z,11.70
2022-10-04T22:00:47.166Z,11.70
2022-10-04T22:03:15.668Z,11.70
2022-10-04T22:05:44.066Z,11.60
2022-10-04T22:08:12.644Z,11.60
2022-10-04T22:10:41.130Z,11.50
2022-10-04T22:13:11.135Z,11.40
2022-10-04T22:15:39.644Z,11.40
2022-10-04T22:18:08.086Z,11.30
2022-10-04T22:20:37.376Z,11.20
2022-10-04T22:23:08.060Z,11.10
2022-10-04T22:25:36.490Z,11.10
2022-10-04T22:28:15.770Z,11.00
2022-10-04T22:30:45.626Z,11.00
2022-10-04T22:33:28.298Z,11.00
2022-10-04T22:35:57.892Z,11.10
2022-10-04T22:38:26.424Z,11.30
2022-10-04T22:40:54.983Z,11.60
2022-10-04T22:43:24.751Z,11.70
2022-10-04T22:45:53.717Z,11.80
2022-10-04T22:48:22.218Z,11.90
2022-10-04T22:50:51.311Z,11.80
2022-10-04T22:53:22.340Z,11.70
2022-10-04T22:55:51.883Z,11.60
2022-10-04T22:58:21.031Z,11.50
2022-10-04T23:00:51.427Z,11.40
2022-10-04T23:03:26.607Z,11.40
2022-10-04T23:05:55.999Z,11.30
2022-10-04T23:08:24.554Z,11.20
2022-10-04T23:10:55.576Z,11.10
2022-10-04T23:13:25.105Z,11.00
2022-10-04T23:15:58.890Z,10.90
2022-10-04T23:18:28.491Z,10.80
2022-10-04T23:20:59.105Z,10.80
2022-10-04T23:23:28.816Z,10.80
2022-10-04T23:25:57.442Z,10.80
2022-10-04T23:28:26.188Z,10.70
2022-10-04T23:31:03.073Z,10.70
2022-10-04T23:33:31.570Z,10.70
2022-10-04T23:36:00.764Z,10.60
2022-10-04T23:38:30.485Z,10.50
2022-10-04T23:40:58.883Z,10.50
2022-10-04T23:43:29.146Z,10.50
2022-10-04T23:45:59.483Z,10.50
2022-10-04T23:48:28.767Z,10.50
2022-10-04T23:50:59.834Z,10.50
2022-10-04T23:53:29.566Z,10.50
2022-10-04T23:55:58.882Z,10.50
2022-10-04T23:58:29.943Z,10.50
